sensor_id;sensor_type;location;lat;lon;timestamp;pressure;altitude;pressure_sealevel;temperature;humidity
60642;BME280;46837;52.446;-1.930;2023-02-20T00:00:10;100988.52;;;7.83;81.07
60642;BME280;46837;52.446;-1.930;2023-02-20T00:01:09;100985.74;;;7.83;81.19
60642;BME280;46837;52.446;-1.930;2023-02-20T00:02:09;100982.43;;;7.83;81.17
60642;BME280;46837;52.446;-1.930;2023-02-20T00:03:09;100983.50;;;7.83;81.26
60642;BME280;46837;52.446;-1.930;2023-02-20T00:04:09;100981.48;;;7.84;81.17
60642;BME280;46837;52.446;-1.930;2023-02-20T00:05:10;100979.34;;;7.81;81.32
60642;BME280;46837;52.446;-1.930;2023-02-20T00:06:09;100980.05;;;7.79;81.59
60642;BME280;46837;52.446;-1.930;2023-02-20T00:07:09;100977.34;;;7.78;81.73
60642;BME280;46837;52.446;-1.930;2023-02-20T00:08:09;100977.83;;;7.78;81.80
60642;BME280;46837;52.446;-1.930;2023-02-20T00:09:09;100979.39;;;7.79;81.69
60642;BME280;46837;52.446;-1.930;2023-02-20T00:10:09;100978.25;;;7.77;81.74
60642;BME280;46837;52.446;-1.930;2023-02-20T00:11:09;100981.88;;;7.73;82.26
60642;BME280;46837;52.446;-1.930;2023-02-20T00:12:09;100985.32;;;7.69;82.46
60642;BME280;46837;52.446;-1.930;2023-02-20T00:13:09;100981.51;;;7.70;82.57
60642;BME280;46837;52.446;-1.930;2023-02-20T00:14:09;100979.84;;;7.70;82.61
60642;BME280;46837;52.446;-1.930;2023-02-20T00:15:09;100971.10;;;7.68;82.67
60642;BME280;46837;52.446;-1.930;2023-02-20T00:16:09;100975.52;;;7.73;82.57
60642;BME280;46837;52.446;-1.930;2023-02-20T00:17:09;100974.68;;;7.74;82.40
60642;BME280;46837;52.446;-1.930;2023-02-20T00:18:09;100975.57;;;7.75;82.34
60642;BME280;46837;52.446;-1.930;2023-02-20T00:19:09;100969.06;;;7.77;82.26
60642;BME280;46837;52.446;-1.930;2023-02-20T00:20:09;100970.31;;;7.76;82.34
60642;BME280;46837;52.446;-1.930;2023-02-20T00:21:09;100970.90;;;7.77;82.34
60642;BME280;46837;52.446;-1.930;2023-02-20T00:22:09;100974.52;;;7.74;82.54
60642;BME280;46837;52.446;-1.930;2023-02-20T00:23:09;100968.57;;;7.75;82.54
60642;BME280;46837;52.446;-1.930;2023-02-20T00:24:09;100965.21;;;7.78;82.26
60642;BME280;46837;52.446;-1.930;2023-02-20T00:25:09;100963.00;;;7.77;82.38
60642;BME280;46837;52.446;-1.930;2023-02-20T00:26:09;100959.95;;;7.78;82.31
60642;BME280;46837;52.446;-1.930;2023-02-20T00:27:09;100961.56;;;7.75;82.51
60642;BME280;46837;52.446;-1.930;2023-02-20T00:28:09;100957.70;;;7.76;82.54
60642;BME280;46837;52.446;-1.930;2023-02-20T00:29:09;100956.53;;;7.79;82.46
60642;BME280;46837;52.446;-1.930;2023-02-20T00:31:11;100957.75;;;7.78;82.50
60642;BME280;46837;52.446;-1.930;2023-02-20T00:32:09;100956.88;;;7.80;82.40
60642;BME280;46837;52.446;-1.930;2023-02-20T00:33:09;100961.27;;;7.79;82.51
60642;BME280;46837;52.446;-1.930;2023-02-20T00:34:09;100961.20;;;7.81;82.50
60642;BME280;46837;52.446;-1.930;2023-02-20T00:35:09;100960.90;;;7.77;82.59
60642;BME280;46837;52.446;-1.930;2023-02-20T00:37:09;100956.16;;;7.77;82.60
60642;BME280;46837;52.446;-1.930;2023-02-20T00:38:09;100956.32;;;7.80;82.69
60642;BME280;46837;52.446;-1.930;2023-02-20T00:39:09;100958.52;;;7.78;82.76
60642;BME280;46837;52.446;-1.930;2023-02-20T00:40:09;100952.90;;;7.76;82.95
60642;BME280;46837;52.446;-1.930;2023-02-20T00:41:09;100948.72;;;7.76;83.02
60642;BME280;46837;52.446;-1.930;2023-02-20T00:42:09;100949.98;;;7.76;83.06
60642;BME280;46837;52.446;-1.930;2023-02-20T00:43:09;100949.41;;;7.79;83.05
60642;BME280;46837;52.446;-1.930;2023-02-20T00:44:09;100942.99;;;7.79;83.21
60642;BME280;46837;52.446;-1.930;2023-02-20T00:45:09;100942.62;;;7.77;83.38
60642;BME280;46837;52.446;-1.930;2023-02-20T00:46:11;100940.22;;;7.79;83.32
60642;BME280;46837;52.446;-1.930;2023-02-20T00:47:09;100941.93;;;7.81;83.24
60642;BME280;46837;52.446;-1.930;2023-02-20T00:48:09;100944.48;;;7.78;83.60
60642;BME280;46837;52.446;-1.930;2023-02-20T00:49:09;100949.54;;;7.80;83.53
60642;BME280;46837;52.446;-1.930;2023-02-20T00:50:10;100941.29;;;7.83;83.35
60642;BME280;46837;52.446;-1.930;2023-02-20T00:51:09;100947.34;;;7.83;83.39
60642;BME280;46837;52.446;-1.930;2023-02-20T00:52:09;100938.36;;;7.83;83.45
60642;BME280;46837;52.446;-1.930;2023-02-20T00:53:09;100940.82;;;7.81;83.67
60642;BME280;46837;52.446;-1.930;2023-02-20T00:54:09;100942.07;;;7.84;83.75
60642;BME280;46837;52.446;-1.930;2023-02-20T00:55:09;100947.24;;;7.88;83.52
60642;BME280;46837;52.446;-1.930;2023-02-20T00:56:09;100942.91;;;7.81;83.80
60642;BME280;46837;52.446;-1.930;2023-02-20T00:57:09;100951.08;;;7.82;84.11
60642;BME280;46837;52.446;-1.930;2023-02-20T00:58:09;100950.89;;;7.82;84.05
60642;BME280;46837;52.446;-1.930;2023-02-20T00:59:09;100950.89;;;7.80;84.28
60642;BME280;46837;52.446;-1.930;2023-02-20T01:00:15;100950.11;;;7.83;83.98
60642;BME280;46837;52.446;-1.930;2023-02-20T01:01:09;100949.81;;;7.86;83.94
60642;BME280;46837;52.446;-1.930;2023-02-20T01:02:09;100953.65;;;7.87;83.74
60642;BME280;46837;52.446;-1.930;2023-02-20T01:03:09;100950.45;;;7.86;83.78
60642;BME280;46837;52.446;-1.930;2023-02-20T01:04:09;100957.35;;;7.90;83.73
60642;BME280;46837;52.446;-1.930;2023-02-20T01:05:09;100957.07;;;7.93;83.41
60642;BME280;46837;52.446;-1.930;2023-02-20T01:06:09;100956.25;;;7.91;83.58
60642;BME280;46837;52.446;-1.930;2023-02-20T01:07:09;100952.39;;;7.91;83.53
60642;BME280;46837;52.446;-1.930;2023-02-20T01:08:09;100953.80;;;7.93;83.34
60642;BME280;46837;52.446;-1.930;2023-02-20T01:09:09;100954.48;;;7.92;83.41
60642;BME280;46837;52.446;-1.930;2023-02-20T01:10:09;100950.13;;;7.86;83.48
60642;BME280;46837;52.446;-1.930;2023-02-20T01:11:09;100951.48;;;7.88;83.74
60642;BME280;46837;52.446;-1.930;2023-02-20T01:12:09;100948.88;;;7.86;83.88
60642;BME280;46837;52.446;-1.930;2023-02-20T01:13:09;100952.60;;;7.87;83.78
60642;BME280;46837;52.446;-1.930;2023-02-20T01:14:09;100952.51;;;7.87;83.79
60642;BME280;46837;52.446;-1.930;2023-02-20T01:15:10;100954.19;;;7.87;83.69
60642;BME280;46837;52.446;-1.930;2023-02-20T01:16:09;100954.48;;;7.85;83.60
60642;BME280;46837;52.446;-1.930;2023-02-20T01:17:10;100953.35;;;7.84;84.02
60642;BME280;46837;52.446;-1.930;2023-02-20T01:18:09;100954.08;;;7.85;83.91
60642;BME280;46837;52.446;-1.930;2023-02-20T01:19:09;100957.53;;;7.86;83.79
60642;BME280;46837;52.446;-1.930;2023-02-20T01:20:09;100956.52;;;7.87;83.91
60642;BME280;46837;52.446;-1.930;2023-02-20T01:21:09;100957.95;;;7.83;84.04
60642;BME280;46837;52.446;-1.930;2023-02-20T01:22:10;100953.50;;;7.85;84.30
60642;BME280;46837;52.446;-1.930;2023-02-20T01:23:09;100951.20;;;7.91;84.03
60642;BME280;46837;52.446;-1.930;2023-02-20T01:24:09;100945.87;;;7.96;83.84
60642;BME280;46837;52.446;-1.930;2023-02-20T01:25:09;100942.95;;;7.98;83.71
60642;BME280;46837;52.446;-1.930;2023-02-20T01:26:09;100943.10;;;8.00;83.72
60642;BME280;46837;52.446;-1.930;2023-02-20T01:27:09;100943.68;;;8.04;83.68
60642;BME280;46837;52.446;-1.930;2023-02-20T01:28:09;100942.11;;;8.04;83.76
60642;BME280;46837;52.446;-1.930;2023-02-20T01:29:09;100942.83;;;8.10;83.66
60642;BME280;46837;52.446;-1.930;2023-02-20T01:30:09;100942.48;;;8.10;83.51
60642;BME280;46837;52.446;-1.930;2023-02-20T01:31:09;100937.77;;;8.07;83.80
60642;BME280;46837;52.446;-1.930;2023-02-20T01:32:10;100938.75;;;8.05;84.05
60642;BME280;46837;52.446;-1.930;2023-02-20T01:33:09;100934.68;;;8.08;84.05
60642;BME280;46837;52.446;-1.930;2023-02-20T01:34:09;100930.23;;;8.10;83.83
60642;BME280;46837;52.446;-1.930;2023-02-20T01:35:09;100931.96;;;8.12;83.77
60642;BME280;46837;52.446;-1.930;2023-02-20T01:36:09;100933.25;;;8.13;83.66
60642;BME280;46837;52.446;-1.930;2023-02-20T01:37:13;100932.29;;;8.14;83.73
60642;BME280;46837;52.446;-1.930;2023-02-20T01:38:09;100927.88;;;8.14;83.61
60642;BME280;46837;52.446;-1.930;2023-02-20T01:39:09;100930.25;;;8.15;83.70
60642;BME280;46837;52.446;-1.930;2023-02-20T01:40:13;100933.43;;;8.16;83.63
60642;BME280;46837;52.446;-1.930;2023-02-20T01:41:09;100927.84;;;8.14;83.75
60642;BME280;46837;52.446;-1.930;2023-02-20T01:42:13;100934.46;;;8.13;83.88
60642;BME280;46837;52.446;-1.930;2023-02-20T01:43:09;100936.51;;;8.18;83.80
60642;BME280;46837;52.446;-1.930;2023-02-20T01:45:13;100933.62;;;8.19;83.61
60642;BME280;46837;52.446;-1.930;2023-02-20T01:47:11;100939.50;;;8.19;83.81
60642;BME280;46837;52.446;-1.930;2023-02-20T01:49:11;100933.46;;;8.26;83.51
60642;BME280;46837;52.446;-1.930;2023-02-20T01:50:09;100927.81;;;8.27;83.49
60642;BME280;46837;52.446;-1.930;2023-02-20T01:51:09;100928.38;;;8.30;83.42
60642;BME280;46837;52.446;-1.930;2023-02-20T01:53:14;100927.68;;;8.30;83.55
60642;BME280;46837;52.446;-1.930;2023-02-20T01:54:10;100924.27;;;8.24;83.72
60642;BME280;46837;52.446;-1.930;2023-02-20T01:56:09;100923.11;;;8.30;83.39
60642;BME280;46837;52.446;-1.930;2023-02-20T01:57:11;100919.23;;;8.32;83.22
60642;BME280;46837;52.446;-1.930;2023-02-20T01:59:09;100914.18;;;8.26;83.24
60642;BME280;46837;52.446;-1.930;2023-02-20T02:00:11;100911.43;;;8.18;83.73
60642;BME280;46837;52.446;-1.930;2023-02-20T02:01:09;100919.07;;;8.17;83.90
60642;BME280;46837;52.446;-1.930;2023-02-20T02:02:09;100917.32;;;8.12;84.03
60642;BME280;46837;52.446;-1.930;2023-02-20T02:03:14;100913.69;;;8.10;84.18
60642;BME280;46837;52.446;-1.930;2023-02-20T02:04:09;100908.47;;;8.11;84.17
60642;BME280;46837;52.446;-1.930;2023-02-20T02:05:09;100906.94;;;8.10;84.14
60642;BME280;46837;52.446;-1.930;2023-02-20T02:06:09;100904.86;;;8.07;84.39
60642;BME280;46837;52.446;-1.930;2023-02-20T02:07:09;100906.77;;;8.06;84.38
60642;BME280;46837;52.446;-1.930;2023-02-20T02:08:09;100903.93;;;8.08;84.22
60642;BME280;46837;52.446;-1.930;2023-02-20T02:10:12;100908.80;;;8.04;84.47
60642;BME280;46837;52.446;-1.930;2023-02-20T02:11:11;100902.82;;;8.05;84.42
60642;BME280;46837;52.446;-1.930;2023-02-20T02:12:09;100907.82;;;8.04;84.43
60642;BME280;46837;52.446;-1.930;2023-02-20T02:13:09;100907.60;;;8.04;84.40
60642;BME280;46837;52.446;-1.930;2023-02-20T02:14:09;100910.62;;;8.05;84.36
60642;BME280;46837;52.446;-1.930;2023-02-20T02:15:13;100906.35;;;7.99;84.51
60642;BME280;46837;52.446;-1.930;2023-02-20T02:16:20;100907.66;;;7.99;84.70
60642;BME280;46837;52.446;-1.930;2023-02-20T02:24:21;100896.32;;;7.91;85.16
60642;BME280;46837;52.446;-1.930;2023-02-20T02:33:19;100876.51;;;7.84;85.85
60642;BME280;46837;52.446;-1.930;2023-02-20T02:44:18;100864.49;;;7.82;87.32
60642;BME280;46837;52.446;-1.930;2023-02-20T02:46:14;100866.05;;;7.86;87.06
60642;BME280;46837;52.446;-1.930;2023-02-20T02:47:17;100864.46;;;7.85;87.16
60642;BME280;46837;52.446;-1.930;2023-02-20T02:49:57;100867.79;;;7.85;87.33
60642;BME280;46837;52.446;-1.930;2023-02-20T02:50:16;100869.84;;;7.92;87.00
60642;BME280;46837;52.446;-1.930;2023-02-20T02:52:09;100865.65;;;7.93;86.83
60642;BME280;46837;52.446;-1.930;2023-02-20T02:53:09;100875.16;;;7.93;87.11
60642;BME280;46837;52.446;-1.930;2023-02-20T02:54:13;100862.84;;;7.94;86.96
60642;BME280;46837;52.446;-1.930;2023-02-20T02:55:09;100860.41;;;7.95;86.75
60642;BME280;46837;52.446;-1.930;2023-02-20T02:56:13;100859.93;;;7.93;86.86
60642;BME280;46837;52.446;-1.930;2023-02-20T02:58:09;100859.14;;;7.92;87.30
60642;BME280;46837;52.446;-1.930;2023-02-20T02:59:09;100859.38;;;7.91;87.32
60642;BME280;46837;52.446;-1.930;2023-02-20T03:00:18;100865.67;;;7.92;87.43
60642;BME280;46837;52.446;-1.930;2023-02-20T03:01:09;100874.85;;;7.96;87.32
60642;BME280;46837;52.446;-1.930;2023-02-20T03:02:12;100859.88;;;7.94;87.31
60642;BME280;46837;52.446;-1.930;2023-02-20T03:04:10;100868.11;;;7.96;87.43
60642;BME280;46837;52.446;-1.930;2023-02-20T03:05:10;100865.45;;;7.96;87.49
60642;BME280;46837;52.446;-1.930;2023-02-20T03:06:17;100859.86;;;7.99;87.44
60642;BME280;46837;52.446;-1.930;2023-02-20T03:07:10;100860.21;;;7.98;87.21
60642;BME280;46837;52.446;-1.930;2023-02-20T03:09:16;100857.73;;;7.96;87.56
60642;BME280;46837;52.446;-1.930;2023-02-20T03:10:10;100862.36;;;7.99;87.56
60642;BME280;46837;52.446;-1.930;2023-02-20T03:11:14;100862.84;;;7.99;87.41
60642;BME280;46837;52.446;-1.930;2023-02-20T03:12:09;100862.90;;;8.01;87.43
60642;BME280;46837;52.446;-1.930;2023-02-20T03:13:09;100858.39;;;7.99;87.53
60642;BME280;46837;52.446;-1.930;2023-02-20T03:14:18;100856.83;;;8.00;87.38
60642;BME280;46837;52.446;-1.930;2023-02-20T03:15:17;100859.35;;;7.98;87.64
60642;BME280;46837;52.446;-1.930;2023-02-20T03:16:09;100845.54;;;7.99;87.52
60642;BME280;46837;52.446;-1.930;2023-02-20T03:18:16;100859.44;;;7.98;87.66
60642;BME280;46837;52.446;-1.930;2023-02-20T03:19:09;100846.00;;;7.98;87.76
60642;BME280;46837;52.446;-1.930;2023-02-20T03:20:11;100835.30;;;7.99;87.63
60642;BME280;46837;52.446;-1.930;2023-02-20T03:21:17;100837.62;;;8.00;87.70
60642;BME280;46837;52.446;-1.930;2023-02-20T03:22:16;100837.57;;;8.01;87.53
60642;BME280;46837;52.446;-1.930;2023-02-20T03:23:10;100826.77;;;8.02;87.50
60642;BME280;46837;52.446;-1.930;2023-02-20T03:24:09;100842.54;;;8.01;87.67
60642;BME280;46837;52.446;-1.930;2023-02-20T03:26:14;100804.10;;;8.01;87.61
60642;BME280;46837;52.446;-1.930;2023-02-20T03:27:09;100832.59;;;7.99;87.90
60642;BME280;46837;52.446;-1.930;2023-02-20T03:28:15;100829.45;;;8.00;87.79
60642;BME280;46837;52.446;-1.930;2023-02-20T03:29:14;100837.55;;;8.02;87.70
60642;BME280;46837;52.446;-1.930;2023-02-20T03:31:12;100820.64;;;8.02;87.78
60642;BME280;46837;52.446;-1.930;2023-02-20T03:32:13;100827.17;;;8.07;87.57
60642;BME280;46837;52.446;-1.930;2023-02-20T03:33:34;100825.45;;;8.06;87.43
60642;BME280;46837;52.446;-1.930;2023-02-20T03:34:21;100825.38;;;8.05;87.67
60642;BME280;46837;52.446;-1.930;2023-02-20T03:35:13;100827.89;;;8.06;87.77
60642;BME280;46837;52.446;-1.930;2023-02-20T03:36:15;100820.65;;;8.08;87.69
60642;BME280;46837;52.446;-1.930;2023-02-20T03:37:18;100814.96;;;8.09;87.51
60642;BME280;46837;52.446;-1.930;2023-02-20T03:38:13;100813.27;;;8.04;87.62
60642;BME280;46837;52.446;-1.930;2023-02-20T03:39:17;100811.52;;;8.10;87.51
60642;BME280;46837;52.446;-1.930;2023-02-20T03:40:13;100810.29;;;8.09;87.40
60642;BME280;46837;52.446;-1.930;2023-02-20T03:41:13;100809.38;;;8.07;87.80
60642;BME280;46837;52.446;-1.930;2023-02-20T03:42:13;100813.23;;;8.07;87.87
60642;BME280;46837;52.446;-1.930;2023-02-20T03:43:15;100818.93;;;8.11;87.73
60642;BME280;46837;52.446;-1.930;2023-02-20T03:44:09;100809.46;;;8.13;87.45
60642;BME280;46837;52.446;-1.930;2023-02-20T03:45:09;100816.11;;;8.13;87.40
60642;BME280;46837;52.446;-1.930;2023-02-20T03:46:10;100816.38;;;8.11;87.62
60642;BME280;46837;52.446;-1.930;2023-02-20T03:47:09;100819.02;;;8.12;87.52
60642;BME280;46837;52.446;-1.930;2023-02-20T03:48:19;100818.90;;;8.14;87.39
60642;BME280;46837;52.446;-1.930;2023-02-20T03:49:14;100818.90;;;8.14;87.46
60642;BME280;46837;52.446;-1.930;2023-02-20T03:50:13;100822.87;;;8.12;87.41
60642;BME280;46837;52.446;-1.930;2023-02-20T03:51:13;100817.97;;;8.14;87.47
60642;BME280;46837;52.446;-1.930;2023-02-20T03:52:09;100822.88;;;8.17;87.27
60642;BME280;46837;52.446;-1.930;2023-02-20T03:53:09;100822.77;;;8.19;87.14
60642;BME280;46837;52.446;-1.930;2023-02-20T03:54:09;100824.84;;;8.21;86.96
60642;BME280;46837;52.446;-1.930;2023-02-20T03:55:09;100824.51;;;8.21;86.83
60642;BME280;46837;52.446;-1.930;2023-02-20T03:56:11;100823.54;;;8.21;87.03
60642;BME280;46837;52.446;-1.930;2023-02-20T03:57:32;100823.58;;;8.21;86.98
60642;BME280;46837;52.446;-1.930;2023-02-20T03:58:09;100832.52;;;8.21;87.13
60642;BME280;46837;52.446;-1.930;2023-02-20T03:59:14;100832.43;;;8.23;87.00
60642;BME280;46837;52.446;-1.930;2023-02-20T04:00:15;100838.68;;;8.24;86.94
60642;BME280;46837;52.446;-1.930;2023-02-20T04:01:09;100830.54;;;8.23;87.00
60642;BME280;46837;52.446;-1.930;2023-02-20T04:02:13;100831.99;;;8.22;87.12
60642;BME280;46837;52.446;-1.930;2023-02-20T04:03:21;100832.70;;;8.25;87.08
60642;BME280;46837;52.446;-1.930;2023-02-20T04:04:11;100840.59;;;8.24;87.18
60642;BME280;46837;52.446;-1.930;2023-02-20T04:05:17;100834.02;;;8.25;87.13
60642;BME280;46837;52.446;-1.930;2023-02-20T04:06:09;100844.48;;;8.29;87.01
60642;BME280;46837;52.446;-1.930;2023-02-20T04:07:15;100836.56;;;8.27;87.00
60642;BME280;46837;52.446;-1.930;2023-02-20T04:08:15;100835.10;;;8.30;86.96
60642;BME280;46837;52.446;-1.930;2023-02-20T04:09:11;100830.50;;;8.29;86.85
60642;BME280;46837;52.446;-1.930;2023-02-20T04:10:11;100825.16;;;8.31;86.84
60642;BME280;46837;52.446;-1.930;2023-02-20T04:11:14;100822.61;;;8.29;86.77
60642;BME280;46837;52.446;-1.930;2023-02-20T04:13:09;100830.43;;;8.30;87.17
60642;BME280;46837;52.446;-1.930;2023-02-20T04:14:09;100835.43;;;8.30;87.11
60642;BME280;46837;52.446;-1.930;2023-02-20T04:15:10;100832.32;;;8.32;87.08
60642;BME280;46837;52.446;-1.930;2023-02-20T04:16:09;100840.84;;;8.33;86.88
60642;BME280;46837;52.446;-1.930;2023-02-20T04:17:12;100827.96;;;8.34;86.63
60642;BME280;46837;52.446;-1.930;2023-02-20T04:18:10;100835.30;;;8.31;86.91
60642;BME280;46837;52.446;-1.930;2023-02-20T04:19:09;100833.37;;;8.30;86.78
60642;BME280;46837;52.446;-1.930;2023-02-20T04:20:09;100844.09;;;8.30;86.95
60642;BME280;46837;52.446;-1.930;2023-02-20T04:21:15;100843.92;;;8.30;86.85
60642;BME280;46837;52.446;-1.930;2023-02-20T04:22:11;100839.46;;;8.30;86.90
60642;BME280;46837;52.446;-1.930;2023-02-20T04:23:16;100842.52;;;8.29;86.96
60642;BME280;46837;52.446;-1.930;2023-02-20T04:24:15;100837.16;;;8.29;86.85
60642;BME280;46837;52.446;-1.930;2023-02-20T04:25:18;100839.93;;;8.29;86.84
60642;BME280;46837;52.446;-1.930;2023-02-20T04:26:14;100845.04;;;8.29;86.65
60642;BME280;46837;52.446;-1.930;2023-02-20T04:27:09;100843.59;;;8.22;87.01
60642;BME280;46837;52.446;-1.930;2023-02-20T04:28:09;100842.16;;;8.24;87.10
60642;BME280;46837;52.446;-1.930;2023-02-20T04:29:09;100837.71;;;8.27;86.87
60642;BME280;46837;52.446;-1.930;2023-02-20T04:30:09;100843.17;;;8.26;86.76
60642;BME280;46837;52.446;-1.930;2023-02-20T04:31:12;100838.01;;;8.23;86.89
60642;BME280;46837;52.446;-1.930;2023-02-20T04:32:09;100837.60;;;8.25;86.89
60642;BME280;46837;52.446;-1.930;2023-02-20T04:33:10;100829.46;;;8.24;86.88
60642;BME280;46837;52.446;-1.930;2023-02-20T04:34:09;100830.92;;;8.26;86.70
60642;BME280;46837;52.446;-1.930;2023-02-20T04:35:11;100832.80;;;8.24;86.67
60642;BME280;46837;52.446;-1.930;2023-02-20T04:36:09;100834.51;;;8.23;86.87
60642;BME280;46837;52.446;-1.930;2023-02-20T04:37:10;100830.70;;;8.20;86.91
60642;BME280;46837;52.446;-1.930;2023-02-20T04:38:09;100833.55;;;8.24;86.88
60642;BME280;46837;52.446;-1.930;2023-02-20T04:39:09;100825.29;;;8.24;86.91
60642;BME280;46837;52.446;-1.930;2023-02-20T04:40:09;100829.67;;;8.21;87.28
60642;BME280;46837;52.446;-1.930;2023-02-20T04:41:09;100828.55;;;8.24;86.93
60642;BME280;46837;52.446;-1.930;2023-02-20T04:42:09;100826.64;;;8.22;86.91
60642;BME280;46837;52.446;-1.930;2023-02-20T04:43:09;100829.96;;;8.24;86.94
60642;BME280;46837;52.446;-1.930;2023-02-20T04:44:13;100831.89;;;8.23;86.90
60642;BME280;46837;52.446;-1.930;2023-02-20T04:45:09;100835.51;;;8.24;86.90
60642;BME280;46837;52.446;-1.930;2023-02-20T04:46:09;100830.00;;;8.22;86.70
60642;BME280;46837;52.446;-1.930;2023-02-20T04:47:12;100832.62;;;8.23;86.99
60642;BME280;46837;52.446;-1.930;2023-02-20T04:48:09;100828.81;;;8.24;86.84
60642;BME280;46837;52.446;-1.930;2023-02-20T04:49:09;100837.26;;;8.24;86.90
60642;BME280;46837;52.446;-1.930;2023-02-20T04:50:09;100836.27;;;8.21;87.10
60642;BME280;46837;52.446;-1.930;2023-02-20T04:51:09;100841.95;;;8.22;87.09
60642;BME280;46837;52.446;-1.930;2023-02-20T04:52:09;100839.83;;;8.25;87.06
60642;BME280;46837;52.446;-1.930;2023-02-20T04:53:09;100847.07;;;8.25;87.21
60642;BME280;46837;52.446;-1.930;2023-02-20T04:54:09;100849.49;;;8.28;87.15
60642;BME280;46837;52.446;-1.930;2023-02-20T04:55:09;100849.45;;;8.31;86.99
60642;BME280;46837;52.446;-1.930;2023-02-20T04:56:09;100848.40;;;8.30;87.12
60642;BME280;46837;52.446;-1.930;2023-02-20T04:57:09;100852.51;;;8.29;87.28
60642;BME280;46837;52.446;-1.930;2023-02-20T04:58:09;100853.91;;;8.31;87.21
60642;BME280;46837;52.446;-1.930;2023-02-20T04:59:09;100849.76;;;8.33;87.12
60642;BME280;46837;52.446;-1.930;2023-02-20T05:00:09;100850.16;;;8.33;86.96
60642;BME280;46837;52.446;-1.930;2023-02-20T05:01:09;100852.91;;;8.33;87.04
60642;BME280;46837;52.446;-1.930;2023-02-20T05:02:09;100851.77;;;8.34;87.06
60642;BME280;46837;52.446;-1.930;2023-02-20T05:03:09;100847.14;;;8.35;86.94
60642;BME280;46837;52.446;-1.930;2023-02-20T05:04:09;100852.21;;;8.33;87.37
60642;BME280;46837;52.446;-1.930;2023-02-20T05:06:09;100845.79;;;8.39;86.97
60642;BME280;46837;52.446;-1.930;2023-02-20T05:07:09;100845.57;;;8.38;87.15
60642;BME280;46837;52.446;-1.930;2023-02-20T05:08:09;100846.03;;;8.36;87.27
60642;BME280;46837;52.446;-1.930;2023-02-20T05:09:09;100855.53;;;8.37;87.64
60642;BME280;46837;52.446;-1.930;2023-02-20T05:10:12;100849.58;;;8.37;87.79
60642;BME280;46837;52.446;-1.930;2023-02-20T05:11:09;100843.87;;;8.41;87.66
60642;BME280;46837;52.446;-1.930;2023-02-20T05:12:09;100851.58;;;8.42;87.29
60642;BME280;46837;52.446;-1.930;2023-02-20T05:13:09;100841.64;;;8.43;87.34
60642;BME280;46837;52.446;-1.930;2023-02-20T05:14:09;100851.27;;;8.45;87.24
60642;BME280;46837;52.446;-1.930;2023-02-20T05:15:09;100851.39;;;8.48;87.15
60642;BME280;46837;52.446;-1.930;2023-02-20T05:16:09;100850.39;;;8.47;87.02
60642;BME280;46837;52.446;-1.930;2023-02-20T05:17:09;100848.12;;;8.48;87.18
60642;BME280;46837;52.446;-1.930;2023-02-20T05:18:09;100846.90;;;8.50;86.96
60642;BME280;46837;52.446;-1.930;2023-02-20T05:19:09;100838.39;;;8.51;86.93
60642;BME280;46837;52.446;-1.930;2023-02-20T05:20:09;100845.11;;;8.49;86.83
60642;BME280;46837;52.446;-1.930;2023-02-20T05:21:15;100839.89;;;8.50;86.79
60642;BME280;46837;52.446;-1.930;2023-02-20T05:22:13;100842.82;;;8.49;87.03
60642;BME280;46837;52.446;-1.930;2023-02-20T05:23:09;100838.11;;;8.48;86.97
60642;BME280;46837;52.446;-1.930;2023-02-20T05:24:09;100836.79;;;8.50;86.94
60642;BME280;46837;52.446;-1.930;2023-02-20T05:25:09;100836.15;;;8.51;86.90
60642;BME280;46837;52.446;-1.930;2023-02-20T05:26:09;100837.64;;;8.49;87.13
60642;BME280;46837;52.446;-1.930;2023-02-20T05:27:09;100839.56;;;8.52;86.90
60642;BME280;46837;52.446;-1.930;2023-02-20T05:28:09;100834.52;;;8.51;86.92
60642;BME280;46837;52.446;-1.930;2023-02-20T05:29:09;100830.32;;;8.51;87.02
60642;BME280;46837;52.446;-1.930;2023-02-20T05:30:09;100835.47;;;8.49;87.08
60642;BME280;46837;52.446;-1.930;2023-02-20T05:31:09;100832.02;;;8.50;87.07
60642;BME280;46837;52.446;-1.930;2023-02-20T05:32:09;100833.73;;;8.50;87.02
60642;BME280;46837;52.446;-1.930;2023-02-20T05:33:09;100836.34;;;8.50;86.98
60642;BME280;46837;52.446;-1.930;2023-02-20T05:34:09;100834.54;;;8.50;86.98
60642;BME280;46837;52.446;-1.930;2023-02-20T05:35:09;100835.50;;;8.51;87.01
60642;BME280;46837;52.446;-1.930;2023-02-20T05:36:09;100835.78;;;8.51;86.98
60642;BME280;46837;52.446;-1.930;2023-02-20T05:37:09;100832.88;;;8.51;86.93
60642;BME280;46837;52.446;-1.930;2023-02-20T05:38:09;100831.25;;;8.45;87.17
60642;BME280;46837;52.446;-1.930;2023-02-20T05:39:09;100837.93;;;8.50;87.16
60642;BME280;46837;52.446;-1.930;2023-02-20T05:40:09;100844.74;;;8.51;87.02
60642;BME280;46837;52.446;-1.930;2023-02-20T05:41:09;100842.79;;;8.51;87.01
60642;BME280;46837;52.446;-1.930;2023-02-20T05:42:09;100847.15;;;8.51;86.93
60642;BME280;46837;52.446;-1.930;2023-02-20T05:43:09;100844.65;;;8.51;86.87
60642;BME280;46837;52.446;-1.930;2023-02-20T05:44:09;100839.89;;;8.50;86.88
60642;BME280;46837;52.446;-1.930;2023-02-20T05:45:09;100839.07;;;8.52;86.81
60642;BME280;46837;52.446;-1.930;2023-02-20T05:46:09;100845.29;;;8.50;86.89
60642;BME280;46837;52.446;-1.930;2023-02-20T05:47:09;100838.46;;;8.50;86.87
60642;BME280;46837;52.446;-1.930;2023-02-20T05:48:12;100835.15;;;8.50;87.02
60642;BME280;46837;52.446;-1.930;2023-02-20T05:49:09;100842.73;;;8.53;86.84
60642;BME280;46837;52.446;-1.930;2023-02-20T05:50:09;100833.49;;;8.51;86.91
60642;BME280;46837;52.446;-1.930;2023-02-20T05:51:17;100836.71;;;8.52;86.92
60642;BME280;46837;52.446;-1.930;2023-02-20T05:52:13;100839.09;;;8.53;86.85
60642;BME280;46837;52.446;-1.930;2023-02-20T05:53:09;100839.77;;;8.55;86.81
60642;BME280;46837;52.446;-1.930;2023-02-20T05:54:09;100834.03;;;8.56;86.62
60642;BME280;46837;52.446;-1.930;2023-02-20T05:55:09;100834.89;;;8.54;86.72
60642;BME280;46837;52.446;-1.930;2023-02-20T05:56:09;100842.24;;;8.53;86.85
60642;BME280;46837;52.446;-1.930;2023-02-20T05:57:10;100846.50;;;8.54;86.82
60642;BME280;46837;52.446;-1.930;2023-02-20T05:58:09;100846.82;;;8.55;86.87